Time;durP1;ratioP1;P1;durP2;ratioP2;P2;SDS_P1;SDS_P2;PMS_P1;PMS_P2;Temp;Humidity;BMP_temperature;BMP_pressure;BME280_temperature;BME280_humidity;BME280_pressure;Samples;Min_cycle;Max_cycle;Signal;HPM_P1;HPM_P2
2021/05/22 00:00:54;;;;;;;19.10;2.10;;;17.00;99.90;;;;;;5034073;28;20026;-89
2021/05/22 00:03:19;;;;;;;10.13;2.20;;;17.00;99.90;;;;;;5036346;28;20033;-91
2021/05/22 00:05:45;;;;;;;13.90;2.17;;;16.90;99.90;;;;;;5035818;28;20017;-88
2021/05/22 00:08:11;;;;;;;11.57;2.00;;;16.90;99.90;;;;;;5030829;28;20028;-82
2021/05/22 00:10:37;;;;;;;8.48;1.90;;;16.90;99.90;;;;;;5036128;28;20495;-90
2021/05/22 00:13:03;;;;;;;11.32;2.20;;;16.90;99.90;;;;;;5036288;28;20469;-89
2021/05/22 00:15:28;;;;;;;8.73;1.90;;;16.90;99.90;;;;;;5036105;28;20025;-89
2021/05/22 00:17:54;;;;;;;20.48;3.33;;;17.00;99.90;;;;;;5035739;28;20067;-85
2021/05/22 00:20:20;;;;;;;21.08;2.53;;;16.90;99.90;;;;;;5036006;28;20091;-88
2021/05/22 00:22:46;;;;;;;12.82;3.05;;;16.90;99.90;;;;;;5036258;28;20033;-87
2021/05/22 00:25:13;;;;;;;18.48;2.60;;;16.90;99.90;;;;;;5035835;28;20075;-88
2021/05/22 00:27:38;;;;;;;10.60;1.90;;;16.90;99.90;;;;;;5029544;28;20018;-89
2021/05/22 00:30:05;;;;;;;8.18;2.30;;;17.00;99.90;;;;;;5022297;28;20421;-87
2021/05/22 00:32:31;;;;;;;18.20;3.47;;;16.90;99.90;;;;;;5035105;28;20112;-81
2021/05/22 00:34:58;;;;;;;13.38;2.13;;;16.90;99.90;;;;;;5033456;28;20052;-79
2021/05/22 00:37:24;;;;;;;9.25;2.47;;;16.90;99.90;;;;;;5033506;28;20097;-86
2021/05/22 00:39:50;;;;;;;12.25;1.92;;;16.80;99.90;;;;;;5033529;28;20029;-85
2021/05/22 00:42:16;;;;;;;12.05;2.22;;;16.80;99.90;;;;;;5033478;28;20641;-80
2021/05/22 00:45:06;;;;;;;22.10;2.60;;;16.80;99.90;;;;;;5033467;28;20068;-79
2021/05/22 00:47:33;;;;;;;13.23;2.65;;;16.80;99.90;;;;;;5027099;28;20041;-79
2021/05/22 00:49:59;;;;;;;15.02;2.65;;;16.70;99.90;;;;;;5033011;28;20108;-82
2021/05/22 00:52:25;;;;;;;9.77;1.90;;;16.70;99.90;;;;;;5035081;28;20493;-80
2021/05/22 00:54:51;;;;;;;12.43;2.17;;;16.70;99.90;;;;;;5034415;28;20074;-81
2021/05/22 00:57:17;;;;;;;15.85;1.92;;;16.70;99.90;;;;;;5033699;28;20104;-80
2021/05/22 00:59:44;;;;;;;10.88;2.45;;;16.70;99.90;;;;;;5023164;28;20026;-79
2021/05/22 01:02:11;;;;;;;16.17;2.28;;;16.60;99.90;;;;;;5029718;28;20037;-79
2021/05/22 01:04:37;;;;;;;11.93;1.90;;;16.70;99.90;;;;;;5024897;28;20024;-85
2021/05/22 01:07:03;;;;;;;16.55;2.20;;;16.70;99.90;;;;;;5031862;28;20025;-79
2021/05/22 01:09:31;;;;;;;19.27;2.17;;;16.70;99.90;;;;;;5034351;28;20044;-79
2021/05/22 01:12:00;;;;;;;9.77;2.42;;;16.70;99.90;;;;;;5034248;28;20037;-78
2021/05/22 01:14:49;;;;;;;27.67;2.53;;;16.70;99.90;;;;;;5033914;28;20021;-85
2021/05/22 01:17:17;;;;;;;12.73;2.38;;;16.80;99.90;;;;;;5034026;28;20390;-79
2021/05/22 01:20:04;;;;;;;8.18;1.92;;;16.70;99.90;;;;;;5029907;28;20018;-78
2021/05/22 01:22:40;;;;;;;8.98;1.80;;;16.80;99.90;;;;;;5034070;28;20030;-77
2021/05/22 01:25:27;;;;;;;8.85;1.88;;;16.70;99.90;;;;;;5027027;28;20117;-86
2021/05/22 01:27:53;;;;;;;11.20;2.13;;;16.70;99.90;;;;;;5032728;28;20014;-82
2021/05/22 01:30:19;;;;;;;13.35;2.83;;;16.70;99.90;;;;;;5032692;28;20032;-82
2021/05/22 01:32:46;;;;;;;14.52;2.33;;;16.80;99.90;;;;;;5032636;28;20521;-80
2021/05/22 01:35:13;;;;;;;10.52;2.28;;;16.80;99.90;;;;;;5032656;28;20474;-90
2021/05/22 01:37:39;;;;;;;10.48;2.00;;;16.80;99.90;;;;;;5032810;28;20025;-78
2021/05/22 01:40:06;;;;;;;15.52;3.10;;;16.80;99.90;;;;;;5032249;28;20014;-78
2021/05/22 01:42:34;;;;;;;9.13;1.85;;;16.90;99.90;;;;;;5034136;28;20025;-79
2021/05/22 01:45:04;;;;;;;8.02;1.80;;;16.80;99.90;;;;;;5034146;28;20017;-77
2021/05/22 01:47:32;;;;;;;7.63;1.70;;;16.80;99.90;;;;;;5025998;28;20021;-79
2021/05/22 01:50:01;;;;;;;15.52;2.25;;;16.80;99.90;;;;;;5036251;28;20501;-80
2021/05/22 01:52:31;;;;;;;11.45;2.08;;;16.80;99.90;;;;;;5035196;28;20049;-89
2021/05/22 01:54:57;;;;;;;8.93;1.77;;;16.80;99.90;;;;;;5035731;28;20423;-92
2021/05/22 01:57:23;;;;;;;12.02;2.15;;;16.80;99.90;;;;;;5034696;28;20021;-86
2021/05/22 01:59:49;;;;;;;13.27;2.30;;;16.80;99.90;;;;;;5034268;28;20022;-89
2021/05/22 02:02:15;;;;;;;6.45;1.75;;;16.80;99.90;;;;;;5034645;28;20167;-91
2021/05/22 02:04:44;;;;;;;6.75;2.05;;;16.80;99.90;;;;;;5034311;28;20525;-80
2021/05/22 02:07:16;;;;;;;12.63;2.35;;;16.80;99.90;;;;;;5033600;28;20540;-87
2021/05/22 02:09:42;;;;;;;9.43;1.70;;;16.80;99.90;;;;;;5034701;28;20033;-86
2021/05/22 02:12:09;;;;;;;8.95;1.80;;;16.80;99.90;;;;;;5033851;28;20557;-81
2021/05/22 02:14:37;;;;;;;17.80;2.45;;;16.70;99.90;;;;;;5034020;28;20029;-89
2021/05/22 02:17:06;;;;;;;5.88;1.65;;;16.80;99.90;;;;;;5033823;28;20036;-88
2021/05/22 02:19:33;;;;;;;17.17;2.30;;;16.80;99.90;;;;;;5033737;28;20124;-82
2021/05/22 02:22:05;;;;;;;5.65;2.03;;;16.70;99.90;;;;;;5032450;28;20021;-88
2021/05/22 02:24:32;;;;;;;10.10;2.08;;;16.70;99.90;;;;;;5033406;28;20031;-92
2021/05/22 02:27:00;;;;;;;6.75;1.73;;;16.70;99.90;;;;;;5033651;28;20029;-85
2021/05/22 02:29:27;;;;;;;8.77;1.95;;;16.70;99.90;;;;;;5034246;28;20355;-83
2021/05/22 02:31:54;;;;;;;9.27;2.95;;;16.70;99.90;;;;;;5033802;28;20056;-90
2021/05/22 02:34:35;;;;;;;7.18;1.70;;;16.60;99.90;;;;;;5033572;28;20362;-93
2021/05/22 02:37:02;;;;;;;13.88;2.17;;;16.60;99.90;;;;;;5033592;28;20466;-87
2021/05/22 02:39:28;;;;;;;18.20;2.03;;;16.60;99.90;;;;;;5033636;28;20466;-87
2021/05/22 02:41:58;;;;;;;7.45;1.80;;;16.60;99.90;;;;;;5033249;28;20033;-89
2021/05/22 02:44:29;;;;;;;11.88;1.85;;;16.60;99.90;;;;;;5032296;28;20543;-80
2021/05/22 02:46:56;;;;;;;4.25;1.35;;;16.60;99.90;;;;;;5030179;28;20079;-84
2021/05/22 02:49:28;;;;;;;8.75;1.80;;;16.60;99.90;;;;;;5025329;28;20042;-87
2021/05/22 02:51:55;;;;;;;;;;;16.50;99.90;;;;;;5030068;28;20044;-85
2021/05/22 02:54:24;;;;;;;12.23;2.08;;;16.50;99.90;;;;;;5019760;28;20323;-83
2021/05/22 02:56:51;;;;;;;10.45;2.30;;;16.50;99.90;;;;;;5033046;28;20050;-82
2021/05/22 02:59:18;;;;;;;9.75;1.80;;;16.50;99.90;;;;;;5027519;28;20509;-78
2021/05/22 03:01:44;;;;;;;13.25;1.70;;;16.50;99.90;;;;;;5042297;28;20486;-83
2021/05/22 03:04:11;;;;;;;10.07;1.60;;;16.50;99.90;;;;;;5020376;28;20022;-83
2021/05/22 03:06:37;;;;;;;12.23;2.00;;;16.50;99.90;;;;;;5030547;28;20033;-86
2021/05/22 03:09:03;;;;;;;7.25;1.92;;;16.50;99.90;;;;;;5047015;28;20021;-84
2021/05/22 03:11:29;;;;;;;7.55;1.90;;;16.50;99.90;;;;;;5043687;28;20490;-78
2021/05/22 03:13:54;;;;;;;8.00;2.33;;;16.50;99.90;;;;;;5029786;28;20084;-81
2021/05/22 03:16:20;;;;;;;8.32;1.25;;;16.40;99.90;;;;;;5049008;28;20029;-85
2021/05/22 03:18:46;;;;;;;11.10;1.40;;;16.50;99.90;;;;;;5052131;28;20022;-78
2021/05/22 03:21:12;;;;;;;13.63;1.75;;;16.40;99.90;;;;;;5051780;28;20402;-78
2021/05/22 03:23:38;;;;;;;8.70;2.58;;;16.40;99.90;;;;;;5050911;28;20535;-83
2021/05/22 03:26:04;;;;;;;6.93;1.40;;;16.40;99.90;;;;;;5052237;28;20063;-82
2021/05/22 03:28:31;;;;;;;12.32;2.33;;;16.30;99.90;;;;;;5051919;28;20028;-80
2021/05/22 03:30:56;;;;;;;5.68;1.30;;;16.20;99.90;;;;;;5051949;28;20366;-77
2021/05/22 03:33:22;;;;;;;5.82;1.45;;;16.20;99.90;;;;;;5042140;28;20087;-78
2021/05/22 03:35:48;;;;;;;6.53;2.42;;;16.20;99.90;;;;;;5043250;28;20071;-91
2021/05/22 03:38:14;;;;;;;4.75;1.30;;;16.10;99.90;;;;;;5033157;28;20069;-83
2021/05/22 03:40:39;;;;;;;10.63;2.40;;;16.10;99.90;;;;;;5052079;28;20060;-76
2021/05/22 03:43:05;;;;;;;9.90;2.30;;;16.10;99.90;;;;;;5052250;28;20029;-82
2021/05/22 03:45:31;;;;;;;10.27;1.70;;;16.10;99.90;;;;;;5051810;28;20017;-80
2021/05/22 03:47:57;;;;;;;9.88;2.13;;;16.10;99.90;;;;;;5051915;28;20036;-76
2021/05/22 03:50:22;;;;;;;10.43;2.55;;;16.10;99.90;;;;;;5051371;28;20057;-79
2021/05/22 03:52:48;;;;;;;12.13;2.83;;;16.10;99.90;;;;;;5042104;28;20045;-79
2021/05/22 03:55:14;;;;;;;25.92;2.13;;;16.10;99.90;;;;;;5041652;28;20025;-78
2021/05/22 03:57:40;;;;;;;9.98;1.20;;;16.10;99.90;;;;;;5051629;28;20040;-76
2021/05/22 04:00:08;;;;;;;10.23;1.85;;;16.10;99.90;;;;;;5051931;28;20366;-77
2021/05/22 04:02:34;;;;;;;10.23;1.60;;;16.10;99.90;;;;;;5051766;28;20028;-76
2021/05/22 04:04:59;;;;;;;4.13;1.67;;;16.10;99.90;;;;;;5053446;28;20056;-81
2021/05/22 04:07:25;;;;;;;8.18;2.03;;;16.10;99.90;;;;;;5055322;28;20052;-78
2021/05/22 04:09:51;;;;;;;5.85;1.30;;;16.10;99.90;;;;;;5055292;28;20029;-78
2021/05/22 04:12:17;;;;;;;7.90;1.15;;;16.10;99.90;;;;;;5050846;28;20504;-77
2021/05/22 04:14:43;;;;;;;6.82;1.40;;;16.10;99.90;;;;;;5048196;28;20032;-80
2021/05/22 04:17:08;;;;;;;6.22;1.52;;;16.10;99.90;;;;;;5055293;28;20031;-80
2021/05/22 04:19:34;;;;;;;7.18;1.55;;;16.10;99.90;;;;;;5041267;28;20021;-76
2021/05/22 04:22:00;;;;;;;11.05;1.88;;;16.00;99.90;;;;;;5053929;28;20083;-78
2021/05/22 04:24:25;;;;;;;9.25;1.38;;;16.10;99.90;;;;;;5055084;28;20028;-75
2021/05/22 04:26:51;;;;;;;10.75;1.92;;;16.00;99.90;;;;;;5054825;28;20031;-75
2021/05/22 04:29:17;;;;;;;7.30;1.67;;;16.00;99.90;;;;;;5054749;28;20064;-77
2021/05/22 04:31:43;;;;;;;13.20;1.52;;;16.00;99.90;;;;;;5054855;28;20044;-76
2021/05/22 04:34:09;;;;;;;11.77;1.85;;;16.10;99.90;;;;;;5039760;28;20079;-79
2021/05/22 04:36:35;;;;;;;9.43;1.75;;;16.10;99.90;;;;;;5039096;28;20047;-78
2021/05/22 04:39:00;;;;;;;12.65;1.48;;;16.20;99.90;;;;;;5048813;28;20397;-83
2021/05/22 04:41:26;;;;;;;3.53;1.13;;;16.20;99.90;;;;;;5054640;28;20032;-81
2021/05/22 04:43:52;;;;;;;5.53;1.42;;;16.20;99.90;;;;;;5054376;28;20074;-80
2021/05/22 04:46:17;;;;;;;4.07;1.20;;;16.20;99.90;;;;;;5054292;28;20100;-77
2021/05/22 04:48:43;;;;;;;5.55;1.30;;;16.20;99.90;;;;;;5054468;28;20032;-76
2021/05/22 04:51:11;;;;;;;14.27;1.60;;;16.20;99.90;;;;;;5054129;28;20053;-79
2021/05/22 04:53:36;;;;;;;10.32;1.85;;;16.30;99.90;;;;;;5053987;28;20052;-77
2021/05/22 04:56:02;;;;;;;7.07;1.80;;;16.30;99.90;;;;;;5052709;28;20049;-80
2021/05/22 04:58:28;;;;;;;13.60;1.55;;;16.30;99.90;;;;;;5051259;28;20037;-75
2021/05/22 05:00:54;;;;;;;5.75;1.50;;;16.30;99.90;;;;;;5024778;28;20029;-79
2021/05/22 05:03:19;;;;;;;3.97;1.40;;;16.40;99.90;;;;;;5028629;28;20490;-81
2021/05/22 05:05:45;;;;;;;5.60;1.60;;;16.30;99.90;;;;;;5025107;28;20030;-81
2021/05/22 05:08:18;;;;;;;3.60;1.15;;;16.40;99.90;;;;;;5044730;28;20017;-91
2021/05/22 05:10:45;;;;;;;6.00;1.40;;;16.40;99.90;;;;;;5045930;28;20131;-89
2021/05/22 05:13:12;;;;;;;6.47;1.63;;;16.40;99.90;;;;;;5038109;28;20013;-90
2021/05/22 05:15:38;;;;;;;3.53;1.17;;;16.40;99.90;;;;;;5036413;28;20490;-89
2021/05/22 05:18:04;;;;;;;4.18;1.10;;;16.40;99.90;;;;;;5036106;28;20032;-91
2021/05/22 05:20:30;;;;;;;3.47;1.27;;;16.40;99.90;;;;;;5036261;28;20079;-89
2021/05/22 05:22:56;;;;;;;4.10;1.17;;;16.40;99.90;;;;;;5035842;28;20525;-78
2021/05/22 05:25:22;;;;;;;11.18;1.58;;;16.40;99.90;;;;;;5037001;28;20025;-92
2021/05/22 05:27:47;;;;;;;5.80;1.00;;;16.40;99.90;;;;;;5038963;28;20080;-92
2021/05/22 05:30:14;;;;;;;2.00;1.13;;;16.50;99.90;;;;;;5036402;28;20029;-91
2021/05/22 05:32:39;;;;;;;3.47;0.98;;;16.40;99.90;;;;;;5036593;28;20549;-89
2021/05/22 05:35:05;;;;;;;7.45;1.27;;;16.50;99.90;;;;;;5028526;28;20104;-89
2021/05/22 05:37:31;;;;;;;4.75;1.17;;;16.40;99.90;;;;;;5024590;28;20030;-88
2021/05/22 05:39:57;;;;;;;7.35;1.30;;;16.40;99.90;;;;;;5035779;28;20491;-90
2021/05/22 05:42:22;;;;;;;1.48;1.00;;;16.40;99.90;;;;;;5037701;28;20035;-89
2021/05/22 05:44:48;;;;;;;2.58;1.15;;;16.40;99.90;;;;;;5036441;28;20524;-95
2021/05/22 05:47:14;;;;;;;7.40;1.20;;;16.40;99.90;;;;;;5037329;28;20045;-90
2021/05/22 05:49:39;;;;;;;3.97;1.15;;;16.50;99.90;;;;;;5036733;28;20563;-90
2021/05/22 05:52:05;;;;;;;4.65;0.98;;;16.50;99.90;;;;;;5036076;28;20037;-93
2021/05/22 05:54:31;;;;;;;2.97;0.82;;;16.50;99.90;;;;;;5036485;28;20026;-91
2021/05/22 05:56:57;;;;;;;5.25;1.00;;;16.60;99.90;;;;;;5030323;28;20029;-83
2021/05/22 05:59:23;;;;;;;7.68;1.15;;;16.60;99.90;;;;;;5035510;28;20021;-90
2021/05/22 06:01:48;;;;;;;3.70;1.40;;;16.60;99.90;;;;;;5035700;28;20061;-90
2021/05/22 06:04:14;;;;;;;6.88;1.50;;;16.60;99.90;;;;;;5035144;28;20374;-90
2021/05/22 06:06:40;;;;;;;6.97;1.20;;;16.50;99.90;;;;;;5035966;28;20025;-90
2021/05/22 06:09:06;;;;;;;13.63;1.65;;;16.60;99.90;;;;;;5051529;28;20465;-89
2021/05/22 06:11:34;;;;;;;13.35;2.13;;;16.50;99.90;;;;;;5055841;28;20065;-92
2021/05/22 06:14:00;;;;;;;7.63;1.67;;;16.60;99.90;;;;;;5055962;28;20017;-93
2021/05/22 06:16:32;;;;;;;2.72;1.13;;;16.60;99.90;;;;;;5050721;28;20033;-91
2021/05/22 06:18:59;;;;;;;4.20;1.20;;;16.70;99.90;;;;;;5046398;28;20025;-90
2021/05/22 06:21:24;;;;;;;6.13;1.23;;;16.70;99.90;;;;;;5056986;28;20377;-89
2021/05/22 06:23:50;;;;;;;3.90;1.08;;;16.70;99.90;;;;;;5057263;28;20021;-89
2021/05/22 06:26:16;;;;;;;5.75;1.38;;;16.70;99.90;;;;;;5051844;28;20036;-83
2021/05/22 06:28:42;;;;;;;4.72;1.30;;;16.70;99.90;;;;;;5051890;28;20017;-94
2021/05/22 06:31:08;;;;;;;6.80;1.50;;;16.80;99.90;;;;;;5048159;28;20385;-93
2021/05/22 06:33:34;;;;;;;2.75;1.10;;;16.80;99.90;;;;;;5042877;28;20025;-93
2021/05/22 06:36:01;;;;;;;4.43;1.20;;;16.80;99.90;;;;;;5049627;28;20053;-83
2021/05/22 06:38:27;;;;;;;5.53;1.30;;;16.90;99.90;;;;;;5045694;28;20037;-94
2021/05/22 06:40:53;;;;;;;13.50;1.52;;;16.90;99.90;;;;;;5045431;28;20025;-90
2021/05/22 06:43:19;;;;;;;7.63;2.00;;;16.90;99.90;;;;;;5049328;28;20087;-90
2021/05/22 06:45:56;;;;;;;4.10;1.23;;;16.90;99.90;;;;;;5050789;28;20029;-79
2021/05/22 06:48:22;;;;;;;3.20;1.25;;;16.90;99.90;;;;;;5037768;28;20025;-90
2021/05/22 06:50:47;;;;;;;6.35;1.55;;;16.90;99.90;;;;;;5050426;28;20037;-93
2021/05/22 06:53:13;;;;;;;5.03;1.38;;;17.00;99.90;;;;;;5046939;28;20031;-81
2021/05/22 06:55:39;;;;;;;7.18;1.40;;;17.00;99.90;;;;;;5044115;28;20021;-91
2021/05/22 06:58:06;;;;;;;12.27;1.83;;;17.10;99.90;;;;;;5045275;28;20021;-91
2021/05/22 07:00:32;;;;;;;4.05;1.10;;;17.10;99.90;;;;;;5045994;28;20087;-83
2021/05/22 07:02:57;;;;;;;3.90;1.55;;;17.20;99.90;;;;;;5043002;28;20033;-88
2021/05/22 07:05:23;;;;;;;4.53;1.30;;;17.30;99.90;;;;;;5046792;28;20025;-87
2021/05/22 07:07:49;;;;;;;7.60;1.33;;;17.30;99.90;;;;;;5048865;28;20369;-86
2021/05/22 07:10:16;;;;;;;4.88;1.42;;;17.30;99.90;;;;;;5037230;28;20375;-87
2021/05/22 07:12:41;;;;;;;7.85;1.65;;;17.30;99.90;;;;;;5031704;28;20513;-80
2021/05/22 07:15:08;;;;;;;5.03;1.25;;;17.30;99.90;;;;;;5030581;28;20028;-79
2021/05/22 07:17:34;;;;;;;3.17;1.10;;;17.30;99.90;;;;;;5026747;28;20473;-81
2021/05/22 07:20:00;;;;;;;6.43;1.13;;;17.30;99.90;;;;;;5027981;28;20022;-77
2021/05/22 07:22:25;;;;;;;12.10;1.58;;;17.30;99.90;;;;;;5024163;28;20101;-77
2021/05/22 07:24:51;;;;;;;4.43;1.40;;;17.20;99.90;;;;;;5029344;28;20018;-77
2021/05/22 07:27:18;;;;;;;5.72;1.30;;;17.30;99.90;;;;;;5030521;28;20022;-81
2021/05/22 07:29:49;;;;;;;3.30;1.15;;;17.20;99.90;;;;;;5024895;28;20027;-84
2021/05/22 07:32:15;;;;;;;6.88;1.23;;;17.30;99.90;;;;;;5030593;28;20033;-78
2021/05/22 07:34:41;;;;;;;10.52;1.40;;;17.30;99.90;;;;;;5030011;28;20030;-77
2021/05/22 07:37:07;;;;;;;9.80;1.27;;;17.30;99.90;;;;;;5030672;28;20021;-78
2021/05/22 07:39:33;;;;;;;3.22;1.35;;;17.30;99.90;;;;;;5016134;28;20018;-76
2021/05/22 07:41:59;;;;;;;4.03;1.08;;;17.30;99.90;;;;;;5019883;28;20030;-77
2021/05/22 07:44:25;;;;;;;5.70;1.92;;;17.20;99.90;;;;;;5017718;28;20026;-85
2021/05/22 07:46:51;;;;;;;4.97;1.40;;;17.30;99.90;;;;;;5028022;28;20777;-84
2021/05/22 07:49:17;;;;;;;7.38;1.38;;;17.30;99.90;;;;;;5024579;28;20040;-85
2021/05/22 07:51:43;;;;;;;5.88;2.15;;;17.30;99.90;;;;;;5026934;28;20038;-75
2021/05/22 07:54:09;;;;;;;13.18;1.60;;;17.30;99.90;;;;;;5034079;28;20033;-79
2021/05/22 07:56:35;;;;;;;6.07;1.40;;;17.30;99.90;;;;;;5035505;28;20037;-76
2021/05/22 07:59:01;;;;;;;7.35;1.70;;;17.30;99.90;;;;;;5034329;28;20429;-76
2021/05/22 08:01:27;;;;;;;4.32;1.33;;;17.40;99.90;;;;;;5020615;28;20061;-77
2021/05/22 08:03:52;;;;;;;5.22;1.33;;;17.40;99.90;;;;;;5027734;28;20044;-77
2021/05/22 08:06:18;;;;;;;6.55;1.77;;;17.40;99.90;;;;;;5034541;28;20098;-84
2021/05/22 08:08:44;;;;;;;3.78;1.23;;;17.40;99.90;;;;;;5017212;28;20018;-80
2021/05/22 08:11:11;;;;;;;8.27;1.50;;;17.50;99.90;;;;;;5017968;28;20038;-78
2021/05/22 08:13:37;;;;;;;6.03;1.55;;;17.50;99.90;;;;;;5026429;28;20500;-78
2021/05/22 08:16:03;;;;;;;8.05;1.63;;;17.60;99.90;;;;;;5028033;28;20022;-82
2021/05/22 08:18:29;;;;;;;10.50;1.98;;;17.60;99.90;;;;;;5034018;28;20053;-84
2021/05/22 08:20:56;;;;;;;5.78;1.60;;;17.70;99.90;;;;;;5027131;28;20403;-80
2021/05/22 08:23:23;;;;;;;14.93;1.98;;;17.60;99.90;;;;;;5031643;28;20087;-80
2021/05/22 08:25:48;;;;;;;6.97;1.92;;;17.60;99.90;;;;;;5029774;28;20057;-81
2021/05/22 08:28:20;;;;;;;8.80;2.38;;;17.60;99.90;;;;;;5029263;28;20088;-80
2021/05/22 08:30:46;;;;;;;17.02;2.28;;;17.70;99.90;;;;;;5030396;28;20557;-81
2021/05/22 08:33:12;;;;;;;6.40;1.65;;;17.70;99.90;;;;;;5030202;28;20029;-81
2021/05/22 08:35:38;;;;;;;6.13;1.77;;;17.70;99.90;;;;;;5027375;28;20109;-81
2021/05/22 08:38:03;;;;;;;10.20;2.30;;;17.70;99.90;;;;;;5020760;28;20026;-82
2021/05/22 08:40:29;;;;;;;9.57;2.10;;;17.70;99.90;;;;;;5021058;28;20545;-82
2021/05/22 08:42:55;;;;;;;6.30;1.42;;;17.80;99.90;;;;;;5028330;28;20037;-82
2021/05/22 08:45:23;;;;;;;4.70;1.40;;;17.80;99.90;;;;;;5033152;28;20072;-82
2021/05/22 08:47:51;;;;;;;18.27;2.00;;;17.90;99.90;;;;;;5033118;28;20115;-82
2021/05/22 08:50:17;;;;;;;4.95;1.50;;;17.90;99.90;;;;;;5031180;28;20037;-82
2021/05/22 08:52:44;;;;;;;7.35;1.85;;;17.90;99.90;;;;;;5029870;28;20033;-82
2021/05/22 08:55:11;;;;;;;8.90;1.73;;;17.90;99.90;;;;;;5025518;28;20022;-82
2021/05/22 08:57:38;;;;;;;17.63;2.13;;;18.00;99.90;;;;;;5028985;28;20024;-83
2021/05/22 09:00:09;;;;;;;9.30;1.77;;;18.00;99.90;;;;;;5029461;28;20482;-82
2021/05/22 09:02:35;;;;;;;9.63;1.70;;;18.10;99.90;;;;;;5028998;28;20037;-82
2021/05/22 09:05:26;;;;;;;7.20;1.63;;;18.10;99.90;;;;;;5022816;28;20028;-82
2021/05/22 09:07:54;;;;;;;8.13;1.60;;;18.10;99.90;;;;;;5024285;28;20026;-81
2021/05/22 09:10:34;;;;;;;12.57;1.83;;;18.10;99.90;;;;;;5031333;28;20013;-82
2021/05/22 09:13:12;;;;;;;9.82;2.10;;;18.10;99.90;;;;;;5012804;28;20033;-82
2021/05/22 09:15:40;;;;;;;12.63;2.22;;;18.20;99.90;;;;;;5027281;28;20025;-81
2021/05/22 09:18:09;;;;;;;11.18;1.90;;;18.20;99.90;;;;;;5023465;28;20127;-79
2021/05/22 09:20:40;;;;;;;9.00;2.10;;;18.20;99.90;;;;;;5026916;28;20022;-78
2021/05/22 09:23:14;;;;;;;8.63;1.80;;;18.30;99.90;;;;;;5027508;28;20490;-79
2021/05/22 09:25:53;;;;;;;9.23;1.88;;;18.40;99.90;;;;;;5030551;28;20037;-78
2021/05/22 09:28:22;;;;;;;13.85;2.17;;;18.40;99.90;;;;;;5031183;28;20044;-74
2021/05/22 09:30:50;;;;;;;7.78;1.90;;;18.40;99.90;;;;;;5030853;28;20035;-77
2021/05/22 09:33:18;;;;;;;5.25;1.92;;;18.40;99.90;;;;;;5028408;28;20026;-77
2021/05/22 09:35:56;;;;;;;6.40;1.77;;;18.30;99.90;;;;;;5026796;28;20299;-77
2021/05/22 09:38:42;;;;;;;8.45;1.70;;;18.30;99.90;;;;;;5026898;28;20079;-76
2021/05/22 09:41:21;;;;;;;11.15;2.08;;;18.30;99.90;;;;;;5026935;28;20113;-74
2021/05/22 09:44:05;;;;;;;6.68;2.13;;;18.40;99.90;;;;;;5030772;28;20030;-77
2021/05/22 09:46:31;;;;;;;10.65;1.77;;;18.40;99.90;;;;;;5031438;28;20032;-78
2021/05/22 09:49:05;;;;;;;12.23;2.85;;;18.50;99.90;;;;;;5031374;28;20017;-82
2021/05/22 09:51:31;;;;;;;17.05;2.33;;;18.50;99.90;;;;;;5018724;28;20113;-83
2021/05/22 09:53:57;;;;;;;14.88;2.00;;;18.50;99.90;;;;;;5032840;28;20112;-85
2021/05/22 09:56:26;;;;;;;11.50;2.42;;;18.60;99.90;;;;;;5026513;28;20394;-80
2021/05/22 09:58:56;;;;;;;10.23;2.15;;;18.60;99.90;;;;;;5027231;28;20032;-81
2021/05/22 10:01:30;;;;;;;7.65;2.55;;;18.60;99.90;;;;;;5019085;28;20030;-80
2021/05/22 10:04:18;;;;;;;12.13;1.88;;;18.70;99.90;;;;;;5027623;28;20030;-82
2021/05/22 10:06:44;;;;;;;10.80;1.98;;;18.60;99.90;;;;;;5026671;28;20042;-78
2021/05/22 10:09:12;;;;;;;4.78;1.70;;;18.70;99.90;;;;;;5031108;28;20040;-80
2021/05/22 10:11:59;;;;;;;7.90;1.40;;;18.60;99.90;;;;;;5014177;28;20389;-81
2021/05/22 10:14:27;;;;;;;13.70;1.80;;;18.60;99.90;;;;;;5017570;28;20025;-80
2021/05/22 10:16:53;;;;;;;14.88;1.58;;;18.60;99.90;;;;;;5029118;28;20018;-80
2021/05/22 10:19:19;;;;;;;16.38;1.90;;;18.60;99.90;;;;;;5028461;28;20026;-79
2021/05/22 10:21:45;;;;;;;4.93;1.42;;;18.60;99.90;;;;;;5016594;28;20025;-79
2021/05/22 10:24:12;;;;;;;9.20;1.30;;;18.50;99.90;;;;;;5017947;28;20022;-80
2021/05/22 10:26:40;;;;;;;16.83;1.73;;;18.60;99.90;;;;;;5016360;28;20014;-82
2021/05/22 10:29:06;;;;;;;5.38;1.70;;;18.60;99.90;;;;;;5018513;28;20018;-78
2021/05/22 10:31:39;;;;;;;5.88;1.60;;;18.60;99.90;;;;;;5019082;28;20683;-80
2021/05/22 10:34:16;;;;;;;10.23;1.60;;;18.60;99.90;;;;;;5017854;28;20463;-81
2021/05/22 10:36:56;;;;;;;8.75;1.50;;;18.70;99.90;;;;;;5021987;28;20033;-78
2021/05/22 10:39:44;;;;;;;4.07;1.38;;;18.70;99.90;;;;;;5019712;28;20022;-79
2021/05/22 10:42:33;;;;;;;6.63;1.55;;;18.70;99.90;;;;;;5022785;28;20053;-79
2021/05/22 10:45:32;;;;;;;11.45;2.15;;;18.80;99.90;;;;;;5025826;28;20049;-79
2021/05/22 10:48:00;;;;;;;5.50;1.63;;;18.80;99.90;;;;;;5031373;28;20028;-80
2021/05/22 10:50:42;;;;;;;8.90;2.17;;;19.00;99.90;;;;;;5022339;28;20049;-81
2021/05/22 10:53:18;;;;;;;9.88;2.08;;;19.00;99.90;;;;;;5022238;28;20159;-80
2021/05/22 10:55:44;;;;;;;10.73;1.58;;;19.10;99.90;;;;;;5026768;28;20026;-78
2021/05/22 10:58:11;;;;;;;7.65;1.60;;;19.20;99.90;;;;;;5017966;28;20386;-80
2021/05/22 11:00:37;;;;;;;6.30;1.40;;;19.20;99.90;;;;;;5019769;28;20017;-80
2021/05/22 11:03:05;;;;;;;9.85;1.88;;;19.30;99.90;;;;;;5017609;28;20025;-80
2021/05/22 11:05:39;;;;;;;6.85;1.90;;;19.30;99.90;;;;;;5026277;28;20071;-78
2021/05/22 11:08:05;;;;;;;7.43;2.40;;;19.30;99.90;;;;;;5015938;28;20030;-79
2021/05/22 11:10:49;;;;;;;9.45;1.95;;;19.40;99.90;;;;;;5032578;28;20024;-81
2021/05/22 11:13:20;;;;;;;12.27;2.10;;;19.50;99.90;;;;;;5021170;28;20484;-81
2021/05/22 11:15:56;;;;;;;;;;;19.40;99.90;;;;;;5033215;28;20022;-81
2021/05/22 11:18:23;;;;;;;6.88;1.90;;;19.40;99.90;;;;;;5030154;28;20400;-81
2021/05/22 11:21:18;;;;;;;13.07;2.03;;;19.30;99.90;;;;;;5020956;28;20018;-83
2021/05/22 11:23:58;;;;;;;7.25;1.63;;;19.30;99.90;;;;;;5017850;28;20049;-81
2021/05/22 11:26:48;;;;;;;9.55;1.27;;;19.30;99.90;;;;;;5024209;28;20516;-80
2021/05/22 11:29:14;;;;;;;10.95;1.38;;;19.30;99.90;;;;;;5024867;28;20408;-81
2021/05/22 11:31:40;;;;;;;10.52;1.67;;;19.30;99.90;;;;;;5020263;28;20080;-80
2021/05/22 11:34:24;;;;;;;8.43;1.50;;;19.30;99.90;;;;;;5024991;28;20033;-79
2021/05/22 11:37:12;;;;;;;4.28;1.10;;;19.30;99.90;;;;;;5038466;28;20018;-81
2021/05/22 11:39:38;;;;;;;6.57;1.75;;;19.40;99.90;;;;;;5022863;28;20474;-81
2021/05/22 11:42:32;;;;;;;17.10;1.70;;;19.40;99.90;;;;;;5024160;28;20025;-81
2021/05/22 11:45:01;;;;;;;8.35;1.55;;;19.40;99.90;;;;;;5014862;28;20021;-80
2021/05/22 11:47:34;;;;;;;5.35;1.45;;;19.50;99.90;;;;;;5027250;23;20461;-84
2021/05/22 11:50:01;;;;;;;7.70;1.40;;;19.50;99.90;;;;;;5014639;28;20033;-85
2021/05/22 11:52:34;;;;;;;5.25;1.38;;;19.50;99.90;;;;;;4999643;28;20117;-83
2021/05/22 11:55:15;;;;;;;7.53;1.20;;;19.60;99.90;;;;;;5016616;28;20033;-82
2021/05/22 11:57:41;;;;;;;6.90;1.40;;;19.60;99.90;;;;;;5000832;28;20573;-83
2021/05/22 12:00:07;;;;;;;5.65;1.30;;;19.60;99.90;;;;;;5006631;28;20523;-81
2021/05/22 12:02:37;;;;;;;2.33;1.13;;;19.60;99.90;;;;;;4997590;28;20025;-79
2021/05/22 12:05:05;;;;;;;5.55;1.23;;;19.70;99.90;;;;;;5011421;28;20040;-85
2021/05/22 12:07:51;;;;;;;3.92;1.23;;;19.70;99.90;;;;;;5000123;28;20422;-79
2021/05/22 12:10:18;;;;;;;3.05;1.08;;;19.80;99.90;;;;;;5015037;28;20033;-79
2021/05/22 12:12:44;;;;;;;6.72;1.23;;;19.80;99.90;;;;;;5016708;28;20028;-79
2021/05/22 12:15:24;;;;;;;5.03;1.20;;;19.90;99.90;;;;;;5011639;28;20029;-78
2021/05/22 12:17:54;;;;;;;4.10;1.30;;;19.90;99.90;;;;;;5010768;28;20027;-79
2021/05/22 12:20:21;;;;;;;3.95;1.23;;;19.70;99.90;;;;;;5018932;28;20558;-79
2021/05/22 12:22:47;;;;;;;10.00;1.40;;;19.70;99.90;;;;;;5010342;28;20022;-78
2021/05/22 12:25:13;;;;;;;8.63;1.33;;;19.70;99.90;;;;;;5010655;28;20022;-79
2021/05/22 12:27:40;;;;;;;3.80;1.40;;;19.80;99.90;;;;;;5017316;28;20033;-78
2021/05/22 12:30:08;;;;;;;3.80;1.40;;;19.90;99.90;;;;;;5008360;28;20668;-80
2021/05/22 12:32:33;;;;;;;12.45;1.58;;;19.80;99.90;;;;;;5015846;28;20026;-80
2021/05/22 12:35:06;;;;;;;15.68;1.52;;;19.90;99.90;;;;;;5018431;28;20025;-81
2021/05/22 12:37:32;;;;;;;10.35;1.98;;;19.90;99.90;;;;;;5017295;28;20398;-79
2021/05/22 12:40:04;;;;;;;8.48;1.92;;;19.80;99.90;;;;;;5024784;28;20013;-80
2021/05/22 12:42:32;;;;;;;11.48;1.70;;;19.90;99.90;;;;;;5018551;28;20030;-80
2021/05/22 12:45:07;;;;;;;7.53;1.92;;;19.90;99.90;;;;;;5043909;28;20056;-80
2021/05/22 12:47:45;;;;;;;7.95;1.77;;;19.90;99.90;;;;;;5052276;28;20045;-80
2021/05/22 12:50:13;;;;;;;11.57;2.67;;;19.90;99.90;;;;;;5047431;28;20017;-81